Flight Track Log - Related Links

Times and Time Zones

All times are in EDT time to prevent confusion due to time zone crossing. See the LXJ622 flight status page for this flight to view local times or setup timezone preferences in your user account.

Time Position Orientation Groundspeed Altitude Reporting Facility
EDT Latitude Longitude Course Direction KTS MPH feet Rate Location/Type
Wed 09:18:49 AM 26.6911 -80.0103 299° West 220 253 4,300  Level Miami Center
Wed 09:19:51 AM 26.7494 -80.0475 330° Northwest 257 296 8,300 2,806 Climbing Miami Center
Wed 09:20:53 AM 26.7833 -80.1303 295° West 296 341 10,100 2,000 Climbing Miami Center
Wed 09:21:54 AM 26.8256 -80.2400 293° West 382 440 12,400 1,902 Climbing Miami Center
Wed 09:22:56 AM 26.8978 -80.3503 306° West 422 486 14,000 780 Climbing Miami Center
Wed 09:23:57 AM 26.9686 -80.4561 307° West 405 466 14,000  Level Miami Center
Wed 09:24:00 AM 26.8441 -80.2382 299° West  Level FlightAware Approximate
Wed 09:24:59 AM 27.0353 -80.5561 307° West 385 443 14,000  Level Miami Center
Wed 09:26:01 AM 27.0956 -80.6472 307° West 381 438 14,000  Level Miami Center
Wed 09:27:02 AM 27.1622 -80.7481 307° West 380 437 14,000  Level Miami Center
Wed 09:28:04 AM 27.2292 -80.8494 307° West 388 447 14,000  Level Miami Center
Wed 09:29:06 AM 27.2972 -80.9528 307° West 388 447 14,000  Level Miami Center
Wed 09:30:07 AM 27.3589 -81.0481 306° West 388 447 14,000 -293 Level Miami Center
Wed 09:31:09 AM 27.4281 -81.1528 307° West 396 456 13,400 -774 Descending Miami Center
Wed 09:32:11 AM 27.4975 -81.2583 307° West 398 458 12,400 -976 Descending Miami Center
Wed 09:33:12 AM 27.5664 -81.3639 306° West 398 458 11,400 -927 Descending Miami Center
Wed 09:34:14 AM 27.6247 -81.4539 306° West 398 458 10,500 -726 Descending Miami Center
Wed 09:35:16 AM 27.6875 -81.5511 306° West 389 448 9,900 -1,024 Descending Miami Center
Wed 09:36:17 AM 27.7400 -81.6308 307° West 321 369 8,400 -2,341 Descending Miami Center
Wed 09:37:19 AM 27.7992 -81.7236 306° West 303 349 5,100 -2,177 Descending Miami Center
Wed 09:38:21 AM 27.8450 -81.7947 306° West 284 327 3,900 -1,024 Descending Miami Center
Wed 09:39:22 AM 27.8914 -81.8672 306° West 291 335 3,000 -488 Descending Miami Center
Wed 09:40:24 AM 27.8969 -81.9442 275° West 243 280 2,900 -48 Descending Miami Center
Wed 09:41:26 AM 27.8961 -82.0075 269° West 206 237 2,900  Level Miami Center
Wed 09:42:28 AM 27.8961 -82.0650 270° West 187 215 2,900  Level Miami Center
Wed 09:43:29 AM 27.8942 -82.1319 268° West 182 209 2,900 66 Level Miami Center
Wed 09:43:59 AM 27.9000 -82.1667 281° West 178 205 3,000 71 Climbing Tampa TRACON
Wed 09:44:54 AM 27.9000 -82.2167 270° West 174 200 3,000  Level Tampa TRACON
Wed 09:45:48 AM 27.9000 -82.2500 270° West 182 209 3,000  Level Tampa TRACON
Wed 09:46:54 AM 27.9667 -82.2667 348° North 171 197 3,000  Level Tampa TRACON
Wed 09:47:48 AM 28.0000 -82.2667 360° North 164 189 3,000 -350 Level Tampa TRACON
Wed 09:48:54 AM 28.0167 -82.2500 41° Northeast 139 160 2,300 -476 Descending Tampa TRACON
Wed 09:49:54 AM 28.0000 -82.2000 111° Southeast 129 148 2,000 -158 Descending Tampa TRACON
Wed 09:50:48 AM 27.9833 -82.1667 120° Southeast 134 154 2,000 -105 Level Tampa TRACON
Wed 09:51:48 AM 27.9833 -82.1333 90° East 139 160 1,800 -476 Descending Tampa TRACON
Wed 09:52:54 AM 27.9833 -82.0833 90° East 123 142 1,000 -700 Descending Tampa TRACON
Wed 09:53:48 AM 27.9833 -82.0500 90° East 130 150 400 -667 Descending Tampa TRACON

Login

Don't have an account? Register now (free) for customized features, flight alerts, and more!